TimeEDT,TemperatureF,Dew PointF,Humidity,Sea Level PressureIn,VisibilityMPH,Wind Direction,Wind SpeedMPH,Gust SpeedMPH,PrecipitationIn,Events,Conditions,WindDirDegrees,DateUTC
12:53 AM,73.9,68.0,82,29.90,10.0,ESE,6.9,-,N/A,,Clear,110,2012-05-08 04:53:00
1:53 AM,73.9,68.0,82,29.88,10.0,East,8.1,-,N/A,,Clear,90,2012-05-08 05:53:00
2:53 AM,73.0,68.0,84,29.87,10.0,Calm,Calm,-,N/A,,Clear,0,2012-05-08 06:53:00
3:53 AM,73.0,69.1,87,29.86,10.0,ESE,4.6,-,N/A,,Clear,110,2012-05-08 07:53:00
4:10 AM,73.4,69.8,88,29.86,10.0,East,4.6,-,N/A,,Mostly Cloudy,100,2012-05-08 08:10:00
4:39 AM,73.4,69.8,88,29.86,9.0,ESE,4.6,-,N/A,,Scattered Clouds,110,2012-05-08 08:39:00
4:53 AM,73.0,70.0,90,29.86,8.0,ESE,4.6,-,N/A,,Partly Cloudy,120,2012-05-08 08:53:00
5:34 AM,73.4,69.8,88,29.87,8.0,SE,4.6,-,N/A,,Mostly Cloudy,140,2012-05-08 09:34:00
5:53 AM,73.0,70.0,90,29.88,9.0,SE,4.6,-,N/A,,Scattered Clouds,140,2012-05-08 09:53:00
6:35 AM,71.6,69.8,94,29.88,9.0,SE,3.5,-,N/A,,Partly Cloudy,130,2012-05-08 10:35:00
6:53 AM,72.0,70.0,93,29.88,8.0,Calm,Calm,-,N/A,,Partly Cloudy,0,2012-05-08 10:53:00
7:28 AM,73.4,69.8,88,29.89,9.0,SE,4.6,-,N/A,,Mostly Cloudy,130,2012-05-08 11:28:00
7:53 AM,73.0,70.0,90,29.90,10.0,Calm,Calm,-,N/A,,Scattered Clouds,0,2012-05-08 11:53:00
8:53 AM,75.0,70.0,84,29.92,10.0,SSE,4.6,-,N/A,,Clear,150,2012-05-08 12:53:00
9:53 AM,75.9,70.0,82,29.92,10.0,SSE,5.8,-,N/A,,Clear,150,2012-05-08 13:53:00
10:35 AM,77.0,69.8,78,29.92,10.0,SSE,6.9,-,N/A,,Mostly Cloudy,150,2012-05-08 14:35:00
10:53 AM,78.1,70.0,76,29.92,10.0,SSE,6.9,-,N/A,,Mostly Cloudy,150,2012-05-08 14:53:00
11:03 AM,80.6,69.8,70,29.91,10.0,SSE,8.1,-,N/A,,Scattered Clouds,160,2012-05-08 15:03:00
11:53 AM,79.0,69.1,72,29.91,10.0,SSE,11.5,-,N/A,,Overcast,160,2012-05-08 15:53:00
12:00 PM,80.6,69.8,70,29.91,10.0,South,10.4,-,N/A,,Mostly Cloudy,190,2012-05-08 16:00:00
12:53 PM,81.0,66.0,60,29.90,10.0,WSW,6.9,-,N/A,,Partly Cloudy,250,2012-05-08 16:53:00
1:53 PM,81.0,68.0,65,29.90,10.0,West,11.5,19.6,N/A,,Clear,280,2012-05-08 17:53:00
2:53 PM,82.0,68.0,62,29.89,10.0,NW,8.1,-,N/A,,Clear,310,2012-05-08 18:53:00
3:53 PM,82.0,66.9,60,29.87,10.0,West,10.4,-,N/A,,Clear,280,2012-05-08 19:53:00
4:53 PM,82.0,68.0,62,29.84,10.0,WNW,10.4,16.1,N/A,,Clear,300,2012-05-08 20:53:00
5:53 PM,81.0,70.0,69,29.85,10.0,West,9.2,-,N/A,,Partly Cloudy,280,2012-05-08 21:53:00
6:53 PM,81.0,70.0,69,29.85,10.0,West,6.9,-,N/A,,Clear,280,2012-05-08 22:53:00
7:53 PM,79.0,70.0,74,29.85,10.0,West,8.1,-,N/A,,Clear,280,2012-05-08 23:53:00
8:53 PM,79.0,71.1,77,29.87,10.0,WNW,3.5,-,N/A,,Clear,300,2012-05-09 00:53:00
9:53 PM,79.0,71.1,77,29.89,10.0,West,4.6,-,N/A,,Clear,280,2012-05-09 01:53:00
10:53 PM,78.1,71.1,79,29.89,10.0,West,3.5,-,N/A,,Clear,260,2012-05-09 02:53:00
11:53 PM,78.1,71.1,79,29.90,10.0,West,4.6,-,N/A,,Clear,280,2012-05-09 03:53:00